sensor_id;sensor_type;location;lat;lon;timestamp;temperature;humidity
32698;DHT22;19087;51.062;3.754;2023-07-29T00:00:47;19.20;99.90
32698;DHT22;19087;51.062;3.754;2023-07-29T00:03:13;19.10;99.90
32698;DHT22;19087;51.062;3.754;2023-07-29T00:05:39;19.00;99.90
32698;DHT22;19087;51.062;3.754;2023-07-29T00:08:05;19.00;99.90
32698;DHT22;19087;51.062;3.754;2023-07-29T00:10:31;18.90;99.90
32698;DHT22;19087;51.062;3.754;2023-07-29T00:12:57;18.90;99.90
32698;DHT22;19087;51.062;3.754;2023-07-29T00:15:23;18.90;99.90
32698;DHT22;19087;51.062;3.754;2023-07-29T00:17:49;18.80;99.90
32698;DHT22;19087;51.062;3.754;2023-07-29T00:20:15;18.70;99.90
32698;DHT22;19087;51.062;3.754;2023-07-29T00:22:40;18.70;99.90
32698;DHT22;19087;51.062;3.754;2023-07-29T00:25:06;18.60;99.90
32698;DHT22;19087;51.062;3.754;2023-07-29T00:27:32;18.60;99.90
32698;DHT22;19087;51.062;3.754;2023-07-29T00:29:58;18.70;99.90
32698;DHT22;19087;51.062;3.754;2023-07-29T00:32:23;18.70;99.90
32698;DHT22;19087;51.062;3.754;2023-07-29T00:34:49;18.80;99.90
32698;DHT22;19087;51.062;3.754;2023-07-29T00:37:14;18.70;99.90
32698;DHT22;19087;51.062;3.754;2023-07-29T00:39:40;18.70;99.90
32698;DHT22;19087;51.062;3.754;2023-07-29T00:42:06;18.80;99.90
32698;DHT22;19087;51.062;3.754;2023-07-29T00:44:32;18.70;99.90
32698;DHT22;19087;51.062;3.754;2023-07-29T00:47:00;18.60;99.90
32698;DHT22;19087;51.062;3.754;2023-07-29T00:49:26;18.60;99.90
32698;DHT22;19087;51.062;3.754;2023-07-29T00:51:52;18.60;99.90
32698;DHT22;19087;51.062;3.754;2023-07-29T00:54:20;18.50;99.90
32698;DHT22;19087;51.062;3.754;2023-07-29T00:56:46;18.50;99.90
32698;DHT22;19087;51.062;3.754;2023-07-29T00:59:11;18.40;99.90
32698;DHT22;19087;51.062;3.754;2023-07-29T01:12:07;18.40;99.90
32698;DHT22;19087;51.062;3.754;2023-07-29T01:14:36;18.30;99.90
32698;DHT22;19087;51.062;3.754;2023-07-29T01:17:05;18.30;99.90
32698;DHT22;19087;51.062;3.754;2023-07-29T01:22:17;18.30;99.90
32698;DHT22;19087;51.062;3.754;2023-07-29T01:24:44;18.30;99.90
32698;DHT22;19087;51.062;3.754;2023-07-29T01:27:11;18.40;99.90
32698;DHT22;19087;51.062;3.754;2023-07-29T01:29:37;18.40;99.90
32698;DHT22;19087;51.062;3.754;2023-07-29T01:32:06;18.30;99.90
32698;DHT22;19087;51.062;3.754;2023-07-29T01:34:35;18.40;99.90
32698;DHT22;19087;51.062;3.754;2023-07-29T01:37:04;18.40;99.90
32698;DHT22;19087;51.062;3.754;2023-07-29T01:39:33;18.30;99.90
32698;DHT22;19087;51.062;3.754;2023-07-29T01:42:00;18.40;99.90
32698;DHT22;19087;51.062;3.754;2023-07-29T01:44:26;18.40;99.90
32698;DHT22;19087;51.062;3.754;2023-07-29T01:46:55;18.40;99.90
32698;DHT22;19087;51.062;3.754;2023-07-29T01:49:22;18.50;99.90
32698;DHT22;19087;51.062;3.754;2023-07-29T01:51:47;18.30;99.90
32698;DHT22;19087;51.062;3.754;2023-07-29T01:54:13;18.10;99.90
32698;DHT22;19087;51.062;3.754;2023-07-29T01:56:39;18.00;99.90
32698;DHT22;19087;51.062;3.754;2023-07-29T01:59:05;17.90;99.90
32698;DHT22;19087;51.062;3.754;2023-07-29T02:01:30;17.90;99.90
32698;DHT22;19087;51.062;3.754;2023-07-29T02:03:56;18.00;99.90
32698;DHT22;19087;51.062;3.754;2023-07-29T02:06:25;18.10;99.90
32698;DHT22;19087;51.062;3.754;2023-07-29T02:08:52;18.20;99.90
32698;DHT22;19087;51.062;3.754;2023-07-29T02:11:17;18.30;99.90
32698;DHT22;19087;51.062;3.754;2023-07-29T02:16:16;18.30;99.90
32698;DHT22;19087;51.062;3.754;2023-07-29T02:18:42;18.40;99.90
32698;DHT22;19087;51.062;3.754;2023-07-29T02:21:07;18.30;99.90
32698;DHT22;19087;51.062;3.754;2023-07-29T02:23:33;18.40;99.90
32698;DHT22;19087;51.062;3.754;2023-07-29T02:25:59;18.30;99.90
32698;DHT22;19087;51.062;3.754;2023-07-29T02:28:26;18.30;99.90
32698;DHT22;19087;51.062;3.754;2023-07-29T02:33:36;18.10;99.90
32698;DHT22;19087;51.062;3.754;2023-07-29T02:36:02;18.10;99.90
32698;DHT22;19087;51.062;3.754;2023-07-29T02:38:28;18.10;99.90
32698;DHT22;19087;51.062;3.754;2023-07-29T02:40:54;18.10;99.90
32698;DHT22;19087;51.062;3.754;2023-07-29T02:43:19;18.00;99.90
32698;DHT22;19087;51.062;3.754;2023-07-29T02:45:45;18.00;99.90
32698;DHT22;19087;51.062;3.754;2023-07-29T02:48:16;18.00;99.90
32698;DHT22;19087;51.062;3.754;2023-07-29T02:50:47;18.00;99.90
32698;DHT22;19087;51.062;3.754;2023-07-29T02:55:42;18.00;99.90
32698;DHT22;19087;51.062;3.754;2023-07-29T02:58:07;18.00;99.90
32698;DHT22;19087;51.062;3.754;2023-07-29T03:03:02;18.10;99.90
32698;DHT22;19087;51.062;3.754;2023-07-29T03:05:28;18.20;99.90
32698;DHT22;19087;51.062;3.754;2023-07-29T03:07:54;18.10;99.90
32698;DHT22;19087;51.062;3.754;2023-07-29T03:10:19;18.20;99.90
32698;DHT22;19087;51.062;3.754;2023-07-29T03:12:49;18.10;99.90
32698;DHT22;19087;51.062;3.754;2023-07-29T03:17:43;18.20;99.90
32698;DHT22;19087;51.062;3.754;2023-07-29T03:20:08;18.20;99.90
32698;DHT22;19087;51.062;3.754;2023-07-29T03:22:34;18.30;99.90
32698;DHT22;19087;51.062;3.754;2023-07-29T03:25:00;18.30;99.90
32698;DHT22;19087;51.062;3.754;2023-07-29T03:27:25;18.30;99.90
32698;DHT22;19087;51.062;3.754;2023-07-29T03:29:51;18.20;99.90
32698;DHT22;19087;51.062;3.754;2023-07-29T03:32:16;18.10;99.90
32698;DHT22;19087;51.062;3.754;2023-07-29T03:34:42;18.00;99.90
32698;DHT22;19087;51.062;3.754;2023-07-29T03:37:08;18.00;99.90
32698;DHT22;19087;51.062;3.754;2023-07-29T03:39:33;18.00;99.90
32698;DHT22;19087;51.062;3.754;2023-07-29T03:41:59;17.90;99.90
32698;DHT22;19087;51.062;3.754;2023-07-29T03:44:25;17.90;99.90
32698;DHT22;19087;51.062;3.754;2023-07-29T03:46:51;17.90;99.90
32698;DHT22;19087;51.062;3.754;2023-07-29T03:49:17;17.90;99.90
32698;DHT22;19087;51.062;3.754;2023-07-29T03:51:44;17.90;99.90
32698;DHT22;19087;51.062;3.754;2023-07-29T03:54:10;18.00;99.90
32698;DHT22;19087;51.062;3.754;2023-07-29T03:56:35;18.00;99.90
32698;DHT22;19087;51.062;3.754;2023-07-29T03:59:05;17.90;99.90
32698;DHT22;19087;51.062;3.754;2023-07-29T04:01:31;17.80;99.90
32698;DHT22;19087;51.062;3.754;2023-07-29T04:03:57;17.90;99.90
32698;DHT22;19087;51.062;3.754;2023-07-29T04:06:22;17.90;99.90
32698;DHT22;19087;51.062;3.754;2023-07-29T04:08:48;17.90;99.90
32698;DHT22;19087;51.062;3.754;2023-07-29T04:11:14;17.80;99.90
32698;DHT22;19087;51.062;3.754;2023-07-29T04:13:40;17.70;99.90
32698;DHT22;19087;51.062;3.754;2023-07-29T04:16:06;17.70;99.90
32698;DHT22;19087;51.062;3.754;2023-07-29T04:18:31;17.90;99.90
32698;DHT22;19087;51.062;3.754;2023-07-29T04:20:57;17.90;99.90
32698;DHT22;19087;51.062;3.754;2023-07-29T04:23:22;18.00;99.90
32698;DHT22;19087;51.062;3.754;2023-07-29T04:25:48;18.00;99.90
32698;DHT22;19087;51.062;3.754;2023-07-29T04:28:15;17.90;99.90
32698;DHT22;19087;51.062;3.754;2023-07-29T04:30:41;17.90;99.90
32698;DHT22;19087;51.062;3.754;2023-07-29T04:33:06;17.90;99.90
32698;DHT22;19087;51.062;3.754;2023-07-29T04:35:32;17.90;99.90
32698;DHT22;19087;51.062;3.754;2023-07-29T04:37:58;17.90;99.90
32698;DHT22;19087;51.062;3.754;2023-07-29T04:40:23;17.90;99.90
32698;DHT22;19087;51.062;3.754;2023-07-29T04:42:49;17.90;99.90
32698;DHT22;19087;51.062;3.754;2023-07-29T04:45:15;17.90;99.90
32698;DHT22;19087;51.062;3.754;2023-07-29T04:47:41;17.80;99.90
32698;DHT22;19087;51.062;3.754;2023-07-29T04:50:07;17.80;99.90
32698;DHT22;19087;51.062;3.754;2023-07-29T04:52:33;17.80;99.90
32698;DHT22;19087;51.062;3.754;2023-07-29T04:54:59;17.80;99.90
32698;DHT22;19087;51.062;3.754;2023-07-29T04:57:24;17.80;99.90
32698;DHT22;19087;51.062;3.754;2023-07-29T04:59:50;17.80;99.90
32698;DHT22;19087;51.062;3.754;2023-07-29T05:02:16;17.70;99.90
32698;DHT22;19087;51.062;3.754;2023-07-29T05:04:41;17.80;99.90
32698;DHT22;19087;51.062;3.754;2023-07-29T05:07:07;17.80;99.90
32698;DHT22;19087;51.062;3.754;2023-07-29T05:12:01;18.00;99.90
32698;DHT22;19087;51.062;3.754;2023-07-29T05:14:26;18.00;99.90
32698;DHT22;19087;51.062;3.754;2023-07-29T05:16:53;17.70;99.90
32698;DHT22;19087;51.062;3.754;2023-07-29T05:19:18;17.80;99.90
32698;DHT22;19087;51.062;3.754;2023-07-29T05:21:44;17.90;99.90
32698;DHT22;19087;51.062;3.754;2023-07-29T05:24:10;17.90;99.90
32698;DHT22;19087;51.062;3.754;2023-07-29T05:26:37;17.90;99.90
32698;DHT22;19087;51.062;3.754;2023-07-29T05:29:03;18.00;99.90
32698;DHT22;19087;51.062;3.754;2023-07-29T05:31:29;18.20;99.90
32698;DHT22;19087;51.062;3.754;2023-07-29T05:33:55;18.50;99.90
32698;DHT22;19087;51.062;3.754;2023-07-29T05:36:20;18.70;99.90
32698;DHT22;19087;51.062;3.754;2023-07-29T05:38:46;19.00;99.90
32698;DHT22;19087;51.062;3.754;2023-07-29T05:41:11;19.30;99.90
32698;DHT22;19087;51.062;3.754;2023-07-29T05:43:37;19.50;99.90
32698;DHT22;19087;51.062;3.754;2023-07-29T05:46:02;19.70;99.90
32698;DHT22;19087;51.062;3.754;2023-07-29T05:48:28;20.00;99.90
32698;DHT22;19087;51.062;3.754;2023-07-29T05:50:54;20.10;99.90
32698;DHT22;19087;51.062;3.754;2023-07-29T05:53:20;20.20;99.90
32698;DHT22;19087;51.062;3.754;2023-07-29T05:55:46;20.20;99.90
32698;DHT22;19087;51.062;3.754;2023-07-29T05:58:11;20.20;99.90
32698;DHT22;19087;51.062;3.754;2023-07-29T06:00:37;20.30;99.90
32698;DHT22;19087;51.062;3.754;2023-07-29T06:03:02;20.20;99.90
32698;DHT22;19087;51.062;3.754;2023-07-29T06:05:28;20.40;99.90
32698;DHT22;19087;51.062;3.754;2023-07-29T06:07:53;20.50;99.90
32698;DHT22;19087;51.062;3.754;2023-07-29T06:10:19;20.70;99.90
32698;DHT22;19087;51.062;3.754;2023-07-29T06:12:46;20.90;99.90
32698;DHT22;19087;51.062;3.754;2023-07-29T06:15:11;21.10;99.90
32698;DHT22;19087;51.062;3.754;2023-07-29T06:17:38;21.40;99.90
32698;DHT22;19087;51.062;3.754;2023-07-29T06:20:04;21.70;99.90
32698;DHT22;19087;51.062;3.754;2023-07-29T06:22:29;21.90;99.90
32698;DHT22;19087;51.062;3.754;2023-07-29T06:24:55;22.00;99.90
32698;DHT22;19087;51.062;3.754;2023-07-29T06:27:21;22.10;99.90
32698;DHT22;19087;51.062;3.754;2023-07-29T06:29:47;22.00;99.90
32698;DHT22;19087;51.062;3.754;2023-07-29T06:32:13;21.80;99.90
32698;DHT22;19087;51.062;3.754;2023-07-29T06:34:38;21.80;99.90
32698;DHT22;19087;51.062;3.754;2023-07-29T06:37:04;21.50;99.90
32698;DHT22;19087;51.062;3.754;2023-07-29T06:39:29;21.50;99.90
32698;DHT22;19087;51.062;3.754;2023-07-29T06:41:55;21.30;99.90
32698;DHT22;19087;51.062;3.754;2023-07-29T06:44:21;21.30;99.90
32698;DHT22;19087;51.062;3.754;2023-07-29T06:46:46;21.30;99.90
32698;DHT22;19087;51.062;3.754;2023-07-29T06:49:12;21.40;99.90
32698;DHT22;19087;51.062;3.754;2023-07-29T06:51:37;21.30;99.90
32698;DHT22;19087;51.062;3.754;2023-07-29T06:54:03;21.40;99.90
32698;DHT22;19087;51.062;3.754;2023-07-29T06:56:28;21.80;99.90
32698;DHT22;19087;51.062;3.754;2023-07-29T06:58:54;23.30;99.90
32698;DHT22;19087;51.062;3.754;2023-07-29T07:01:20;24.40;99.90
32698;DHT22;19087;51.062;3.754;2023-07-29T07:03:46;24.40;99.90
32698;DHT22;19087;51.062;3.754;2023-07-29T07:06:13;24.60;99.90
32698;DHT22;19087;51.062;3.754;2023-07-29T07:08:38;24.50;99.90
32698;DHT22;19087;51.062;3.754;2023-07-29T07:11:04;24.50;99.90
32698;DHT22;19087;51.062;3.754;2023-07-29T07:13:29;24.50;99.90
32698;DHT22;19087;51.062;3.754;2023-07-29T07:15:55;24.30;99.90
32698;DHT22;19087;51.062;3.754;2023-07-29T07:18:21;24.20;99.90
32698;DHT22;19087;51.062;3.754;2023-07-29T07:20:50;24.10;99.90
32698;DHT22;19087;51.062;3.754;2023-07-29T07:23:16;23.90;99.90
32698;DHT22;19087;51.062;3.754;2023-07-29T07:25:41;23.80;99.90
32698;DHT22;19087;51.062;3.754;2023-07-29T07:28:10;23.90;99.90
32698;DHT22;19087;51.062;3.754;2023-07-29T07:30:39;24.20;99.90
32698;DHT22;19087;51.062;3.754;2023-07-29T07:33:04;24.30;99.90
32698;DHT22;19087;51.062;3.754;2023-07-29T07:35:30;24.50;99.90
32698;DHT22;19087;51.062;3.754;2023-07-29T07:37:55;24.70;99.90
32698;DHT22;19087;51.062;3.754;2023-07-29T07:40:21;25.10;99.90
32698;DHT22;19087;51.062;3.754;2023-07-29T07:42:47;25.50;99.90
32698;DHT22;19087;51.062;3.754;2023-07-29T07:45:12;26.30;99.90
32698;DHT22;19087;51.062;3.754;2023-07-29T07:47:38;27.50;99.30
32698;DHT22;19087;51.062;3.754;2023-07-29T07:50:03;28.80;98.10
32698;DHT22;19087;51.062;3.754;2023-07-29T07:52:29;30.30;94.70
32698;DHT22;19087;51.062;3.754;2023-07-29T07:54:57;31.80;93.60
32698;DHT22;19087;51.062;3.754;2023-07-29T07:57:23;32.70;91.70
32698;DHT22;19087;51.062;3.754;2023-07-29T07:59:48;33.30;89.10
32698;DHT22;19087;51.062;3.754;2023-07-29T08:02:14;33.00;88.10
32698;DHT22;19087;51.062;3.754;2023-07-29T08:04:40;32.80;87.70
32698;DHT22;19087;51.062;3.754;2023-07-29T08:07:06;32.70;86.50
32698;DHT22;19087;51.062;3.754;2023-07-29T08:09:31;32.80;87.50
32698;DHT22;19087;51.062;3.754;2023-07-29T08:11:57;32.60;85.50
32698;DHT22;19087;51.062;3.754;2023-07-29T08:14:23;32.50;86.30
32698;DHT22;19087;51.062;3.754;2023-07-29T08:16:49;31.50;87.30
32698;DHT22;19087;51.062;3.754;2023-07-29T08:19:14;32.20;86.10
32698;DHT22;19087;51.062;3.754;2023-07-29T08:21:40;33.30;85.50
32698;DHT22;19087;51.062;3.754;2023-07-29T08:24:06;34.10;82.60
32698;DHT22;19087;51.062;3.754;2023-07-29T08:26:32;34.00;82.00
32698;DHT22;19087;51.062;3.754;2023-07-29T08:28:58;33.50;82.20
32698;DHT22;19087;51.062;3.754;2023-07-29T08:31:24;32.80;82.80
32698;DHT22;19087;51.062;3.754;2023-07-29T08:33:49;32.80;83.60
32698;DHT22;19087;51.062;3.754;2023-07-29T08:36:15;32.20;83.40
32698;DHT22;19087;51.062;3.754;2023-07-29T08:38:41;31.40;85.60
32698;DHT22;19087;51.062;3.754;2023-07-29T08:41:10;31.00;86.00
32698;DHT22;19087;51.062;3.754;2023-07-29T08:43:39;30.70;86.90
32698;DHT22;19087;51.062;3.754;2023-07-29T08:46:06;30.80;88.10
32698;DHT22;19087;51.062;3.754;2023-07-29T08:48:39;31.30;87.20
32698;DHT22;19087;51.062;3.754;2023-07-29T08:51:05;31.60;87.00
32698;DHT22;19087;51.062;3.754;2023-07-29T08:53:31;30.80;87.60
32698;DHT22;19087;51.062;3.754;2023-07-29T08:55:57;30.30;87.90
32698;DHT22;19087;51.062;3.754;2023-07-29T08:58:23;29.90;89.70
32698;DHT22;19087;51.062;3.754;2023-07-29T09:00:49;29.50;90.10
32698;DHT22;19087;51.062;3.754;2023-07-29T09:04:57;28.60;91.20
32698;DHT22;19087;51.062;3.754;2023-07-29T09:07:23;27.90;92.20
32698;DHT22;19087;51.062;3.754;2023-07-29T09:09:51;27.40;93.00
32698;DHT22;19087;51.062;3.754;2023-07-29T09:12:17;26.90;93.30
32698;DHT22;19087;51.062;3.754;2023-07-29T09:14:43;26.20;94.40
32698;DHT22;19087;51.062;3.754;2023-07-29T09:17:09;26.00;94.80
32698;DHT22;19087;51.062;3.754;2023-07-29T09:19:35;25.60;95.50
32698;DHT22;19087;51.062;3.754;2023-07-29T09:22:01;25.00;96.50
32698;DHT22;19087;51.062;3.754;2023-07-29T09:24:27;25.10;97.00
32698;DHT22;19087;51.062;3.754;2023-07-29T09:26:55;24.90;97.40
32698;DHT22;19087;51.062;3.754;2023-07-29T09:29:28;24.70;98.60
32698;DHT22;19087;51.062;3.754;2023-07-29T09:31:54;24.80;99.20
32698;DHT22;19087;51.062;3.754;2023-07-29T09:34:20;25.00;98.80
32698;DHT22;19087;51.062;3.754;2023-07-29T09:36:46;25.30;98.30
32698;DHT22;19087;51.062;3.754;2023-07-29T09:39:12;25.40;98.10
32698;DHT22;19087;51.062;3.754;2023-07-29T09:41:41;25.30;97.90
32698;DHT22;19087;51.062;3.754;2023-07-29T09:44:07;25.40;98.30
32698;DHT22;19087;51.062;3.754;2023-07-29T09:46:35;25.30;98.50
32698;DHT22;19087;51.062;3.754;2023-07-29T09:49:06;25.20;98.90
32698;DHT22;19087;51.062;3.754;2023-07-29T09:51:37;25.30;98.90
32698;DHT22;19087;51.062;3.754;2023-07-29T09:54:03;25.30;98.90
32698;DHT22;19087;51.062;3.754;2023-07-29T09:56:30;25.10;99.30
32698;DHT22;19087;51.062;3.754;2023-07-29T09:58:56;24.90;99.90
32698;DHT22;19087;51.062;3.754;2023-07-29T10:01:23;24.50;99.90
32698;DHT22;19087;51.062;3.754;2023-07-29T10:03:54;24.30;99.90
32698;DHT22;19087;51.062;3.754;2023-07-29T10:06:22;24.10;99.90
32698;DHT22;19087;51.062;3.754;2023-07-29T10:08:49;24.50;99.90
32698;DHT22;19087;51.062;3.754;2023-07-29T10:11:16;25.00;99.90
32698;DHT22;19087;51.062;3.754;2023-07-29T10:13:46;25.50;99.90
32698;DHT22;19087;51.062;3.754;2023-07-29T10:16:12;26.10;99.90
32698;DHT22;19087;51.062;3.754;2023-07-29T10:18:38;26.60;99.90
32698;DHT22;19087;51.062;3.754;2023-07-29T10:21:05;26.70;99.40
32698;DHT22;19087;51.062;3.754;2023-07-29T10:23:38;26.50;99.70
32698;DHT22;19087;51.062;3.754;2023-07-29T10:26:10;26.40;99.80
32698;DHT22;19087;51.062;3.754;2023-07-29T10:28:40;26.10;99.90
32698;DHT22;19087;51.062;3.754;2023-07-29T10:31:06;26.00;99.90
32698;DHT22;19087;51.062;3.754;2023-07-29T10:33:34;26.10;99.90
32698;DHT22;19087;51.062;3.754;2023-07-29T10:36:00;26.20;99.90
32698;DHT22;19087;51.062;3.754;2023-07-29T10:38:26;26.10;99.90
32698;DHT22;19087;51.062;3.754;2023-07-29T10:40:54;25.60;99.90
32698;DHT22;19087;51.062;3.754;2023-07-29T10:43:43;25.20;99.90
32698;DHT22;19087;51.062;3.754;2023-07-29T10:46:17;24.40;99.90
32698;DHT22;19087;51.062;3.754;2023-07-29T10:48:44;23.90;99.90
32698;DHT22;19087;51.062;3.754;2023-07-29T10:51:36;23.40;99.90
32698;DHT22;19087;51.062;3.754;2023-07-29T10:54:09;22.90;99.90
32698;DHT22;19087;51.062;3.754;2023-07-29T10:56:41;22.60;99.90
32698;DHT22;19087;51.062;3.754;2023-07-29T11:01:50;22.60;99.90
32698;DHT22;19087;51.062;3.754;2023-07-29T11:09:58;23.40;99.90
32698;DHT22;19087;51.062;3.754;2023-07-29T11:15:48;24.30;99.90
32698;DHT22;19087;51.062;3.754;2023-07-29T11:18:15;24.60;99.90
32698;DHT22;19087;51.062;3.754;2023-07-29T11:20:41;24.90;99.90
32698;DHT22;19087;51.062;3.754;2023-07-29T11:23:07;25.30;99.90
32698;DHT22;19087;51.062;3.754;2023-07-29T11:25:33;25.60;99.90
32698;DHT22;19087;51.062;3.754;2023-07-29T11:28:01;25.80;99.90
32698;DHT22;19087;51.062;3.754;2023-07-29T11:30:27;25.90;99.90
32698;DHT22;19087;51.062;3.754;2023-07-29T11:32:55;26.20;99.90
32698;DHT22;19087;51.062;3.754;2023-07-29T11:35:21;26.10;99.90
32698;DHT22;19087;51.062;3.754;2023-07-29T11:37:50;26.40;99.90
32698;DHT22;19087;51.062;3.754;2023-07-29T11:40:17;26.50;99.90
32698;DHT22;19087;51.062;3.754;2023-07-29T11:42:43;26.40;99.90
32698;DHT22;19087;51.062;3.754;2023-07-29T11:45:10;26.40;99.90
32698;DHT22;19087;51.062;3.754;2023-07-29T11:47:37;26.50;99.90
32698;DHT22;19087;51.062;3.754;2023-07-29T11:50:04;26.40;99.90
32698;DHT22;19087;51.062;3.754;2023-07-29T11:52:34;26.20;99.90
32698;DHT22;19087;51.062;3.754;2023-07-29T11:55:02;25.80;99.90
32698;DHT22;19087;51.062;3.754;2023-07-29T11:57:29;25.60;99.90
32698;DHT22;19087;51.062;3.754;2023-07-29T11:59:55;25.30;99.90
32698;DHT22;19087;51.062;3.754;2023-07-29T12:02:21;25.10;99.90
32698;DHT22;19087;51.062;3.754;2023-07-29T12:04:49;25.10;99.90
32698;DHT22;19087;51.062;3.754;2023-07-29T12:07:17;24.70;99.90
32698;DHT22;19087;51.062;3.754;2023-07-29T12:09:43;24.30;99.90
32698;DHT22;19087;51.062;3.754;2023-07-29T12:12:11;24.40;99.90
32698;DHT22;19087;51.062;3.754;2023-07-29T12:14:46;24.60;99.90
32698;DHT22;19087;51.062;3.754;2023-07-29T12:17:12;24.80;99.90
32698;DHT22;19087;51.062;3.754;2023-07-29T12:19:39;24.90;99.90
32698;DHT22;19087;51.062;3.754;2023-07-29T12:22:07;25.00;99.90
32698;DHT22;19087;51.062;3.754;2023-07-29T12:24:36;25.00;99.90
32698;DHT22;19087;51.062;3.754;2023-07-29T12:27:01;25.20;99.90
32698;DHT22;19087;51.062;3.754;2023-07-29T12:29:28;25.40;99.90
32698;DHT22;19087;51.062;3.754;2023-07-29T12:31:59;25.60;99.90
32698;DHT22;19087;51.062;3.754;2023-07-29T12:34:27;25.40;99.90
32698;DHT22;19087;51.062;3.754;2023-07-29T12:36:54;25.80;99.90
32698;DHT22;19087;51.062;3.754;2023-07-29T12:39:28;26.20;99.90
32698;DHT22;19087;51.062;3.754;2023-07-29T12:41:56;26.60;99.10
32698;DHT22;19087;51.062;3.754;2023-07-29T12:44:29;27.10;98.70
32698;DHT22;19087;51.062;3.754;2023-07-29T12:46:55;27.20;98.50
32698;DHT22;19087;51.062;3.754;2023-07-29T12:49:21;27.30;97.90
32698;DHT22;19087;51.062;3.754;2023-07-29T12:51:48;27.40;97.60
32698;DHT22;19087;51.062;3.754;2023-07-29T12:54:14;27.30;97.50
32698;DHT22;19087;51.062;3.754;2023-07-29T12:56:40;27.40;97.30
32698;DHT22;19087;51.062;3.754;2023-07-29T12:59:06;27.40;96.80
32698;DHT22;19087;51.062;3.754;2023-07-29T13:01:32;27.00;97.10
32698;DHT22;19087;51.062;3.754;2023-07-29T13:03:59;27.40;96.90
32698;DHT22;19087;51.062;3.754;2023-07-29T13:06:25;27.50;96.40
32698;DHT22;19087;51.062;3.754;2023-07-29T13:08:51;28.20;96.10
32698;DHT22;19087;51.062;3.754;2023-07-29T13:11:16;28.50;95.20
32698;DHT22;19087;51.062;3.754;2023-07-29T13:13:42;28.60;95.00
32698;DHT22;19087;51.062;3.754;2023-07-29T13:16:09;28.80;95.10
32698;DHT22;19087;51.062;3.754;2023-07-29T13:18:35;28.70;94.20
32698;DHT22;19087;51.062;3.754;2023-07-29T13:21:00;27.90;95.20
32698;DHT22;19087;51.062;3.754;2023-07-29T13:23:26;28.00;95.00
32698;DHT22;19087;51.062;3.754;2023-07-29T13:25:53;27.90;95.10
32698;DHT22;19087;51.062;3.754;2023-07-29T13:28:19;27.90;94.90
32698;DHT22;19087;51.062;3.754;2023-07-29T13:30:45;27.80;95.00
32698;DHT22;19087;51.062;3.754;2023-07-29T13:33:10;27.60;94.80
32698;DHT22;19087;51.062;3.754;2023-07-29T13:35:36;27.40;95.90
32698;DHT22;19087;51.062;3.754;2023-07-29T13:38:02;27.20;96.90
32698;DHT22;19087;51.062;3.754;2023-07-29T13:40:28;26.70;98.90
32698;DHT22;19087;51.062;3.754;2023-07-29T13:42:54;26.00;99.90
32698;DHT22;19087;51.062;3.754;2023-07-29T13:45:21;25.20;99.90
32698;DHT22;19087;51.062;3.754;2023-07-29T13:47:47;24.30;99.90
32698;DHT22;19087;51.062;3.754;2023-07-29T13:50:13;23.80;99.90
32698;DHT22;19087;51.062;3.754;2023-07-29T13:52:39;23.40;99.90
32698;DHT22;19087;51.062;3.754;2023-07-29T13:55:05;23.30;99.90
32698;DHT22;19087;51.062;3.754;2023-07-29T13:57:32;23.20;99.90
32698;DHT22;19087;51.062;3.754;2023-07-29T14:00:01;23.10;99.90
32698;DHT22;19087;51.062;3.754;2023-07-29T14:02:26;23.10;99.90
32698;DHT22;19087;51.062;3.754;2023-07-29T14:04:53;23.10;99.90
32698;DHT22;19087;51.062;3.754;2023-07-29T14:07:18;23.20;99.90
32698;DHT22;19087;51.062;3.754;2023-07-29T14:09:44;23.30;99.90
32698;DHT22;19087;51.062;3.754;2023-07-29T14:12:12;23.40;99.90
32698;DHT22;19087;51.062;3.754;2023-07-29T14:14:40;23.30;99.90
32698;DHT22;19087;51.062;3.754;2023-07-29T14:17:07;23.20;99.90
32698;DHT22;19087;51.062;3.754;2023-07-29T14:19:37;23.20;99.90
32698;DHT22;19087;51.062;3.754;2023-07-29T14:22:11;23.30;99.90
32698;DHT22;19087;51.062;3.754;2023-07-29T14:24:37;23.60;99.90
32698;DHT22;19087;51.062;3.754;2023-07-29T14:27:05;23.70;99.90
32698;DHT22;19087;51.062;3.754;2023-07-29T14:29:31;23.70;99.90
32698;DHT22;19087;51.062;3.754;2023-07-29T14:31:57;24.00;99.90
32698;DHT22;19087;51.062;3.754;2023-07-29T14:34:23;24.40;99.90
32698;DHT22;19087;51.062;3.754;2023-07-29T14:36:48;24.50;99.90
32698;DHT22;19087;51.062;3.754;2023-07-29T14:39:14;24.70;99.90
32698;DHT22;19087;51.062;3.754;2023-07-29T14:41:47;24.70;99.90
32698;DHT22;19087;51.062;3.754;2023-07-29T14:44:13;24.70;99.90
32698;DHT22;19087;51.062;3.754;2023-07-29T14:46:38;24.80;99.90
32698;DHT22;19087;51.062;3.754;2023-07-29T14:49:05;25.10;99.90
32698;DHT22;19087;51.062;3.754;2023-07-29T14:51:34;25.20;99.90
32698;DHT22;19087;51.062;3.754;2023-07-29T14:54:00;25.30;99.90
32698;DHT22;19087;51.062;3.754;2023-07-29T14:56:29;25.50;99.90
32698;DHT22;19087;51.062;3.754;2023-07-29T14:58:59;25.70;99.90
32698;DHT22;19087;51.062;3.754;2023-07-29T15:01:26;25.90;99.90
32698;DHT22;19087;51.062;3.754;2023-07-29T15:03:57;25.60;99.90
32698;DHT22;19087;51.062;3.754;2023-07-29T15:06:24;25.50;99.90
32698;DHT22;19087;51.062;3.754;2023-07-29T15:08:51;25.30;99.90
32698;DHT22;19087;51.062;3.754;2023-07-29T15:11:16;25.20;99.90
32698;DHT22;19087;51.062;3.754;2023-07-29T15:13:42;25.30;99.90
32698;DHT22;19087;51.062;3.754;2023-07-29T15:16:08;25.20;99.90
32698;DHT22;19087;51.062;3.754;2023-07-29T15:18:33;25.10;99.90
32698;DHT22;19087;51.062;3.754;2023-07-29T15:21:00;25.10;99.90
32698;DHT22;19087;51.062;3.754;2023-07-29T15:23:28;25.10;99.90
32698;DHT22;19087;51.062;3.754;2023-07-29T15:25:53;25.20;99.90
32698;DHT22;19087;51.062;3.754;2023-07-29T15:28:19;25.20;99.90
32698;DHT22;19087;51.062;3.754;2023-07-29T15:30:45;25.20;99.90
32698;DHT22;19087;51.062;3.754;2023-07-29T15:33:11;25.10;99.90
32698;DHT22;19087;51.062;3.754;2023-07-29T15:35:38;25.10;99.90
32698;DHT22;19087;51.062;3.754;2023-07-29T15:38:05;25.20;99.90
32698;DHT22;19087;51.062;3.754;2023-07-29T15:40:30;25.20;99.90
32698;DHT22;19087;51.062;3.754;2023-07-29T15:42:56;25.30;99.90
32698;DHT22;19087;51.062;3.754;2023-07-29T15:45:23;25.60;99.90
32698;DHT22;19087;51.062;3.754;2023-07-29T15:47:50;25.90;99.30
32698;DHT22;19087;51.062;3.754;2023-07-29T15:50:16;25.90;98.20
32698;DHT22;19087;51.062;3.754;2023-07-29T15:52:41;25.80;97.70
32698;DHT22;19087;51.062;3.754;2023-07-29T15:55:09;25.50;95.50
32698;DHT22;19087;51.062;3.754;2023-07-29T15:57:35;25.40;95.20
32698;DHT22;19087;51.062;3.754;2023-07-29T16:00:00;25.30;95.20
32698;DHT22;19087;51.062;3.754;2023-07-29T16:02:26;25.10;95.20
32698;DHT22;19087;51.062;3.754;2023-07-29T16:04:52;25.10;94.20
32698;DHT22;19087;51.062;3.754;2023-07-29T16:07:20;24.90;93.90